sensor_id;sensor_type;location;lat;lon;timestamp;temperature;humidity
32877;DHT22;19226;51.600;8.034;2023-12-20T00:01:25;8.50;99.90
32877;DHT22;19226;51.600;8.034;2023-12-20T00:04:10;8.50;99.90
32877;DHT22;19226;51.600;8.034;2023-12-20T00:06:54;8.50;99.90
32877;DHT22;19226;51.600;8.034;2023-12-20T00:09:39;8.40;99.90
32877;DHT22;19226;51.600;8.034;2023-12-20T00:12:24;8.50;99.90
32877;DHT22;19226;51.600;8.034;2023-12-20T00:15:09;8.50;99.90
32877;DHT22;19226;51.600;8.034;2023-12-20T00:17:53;8.50;99.90
32877;DHT22;19226;51.600;8.034;2023-12-20T00:20:38;8.50;99.90
32877;DHT22;19226;51.600;8.034;2023-12-20T00:23:24;8.50;99.90
32877;DHT22;19226;51.600;8.034;2023-12-20T00:26:08;8.40;99.90
32877;DHT22;19226;51.600;8.034;2023-12-20T00:28:53;8.50;99.90
32877;DHT22;19226;51.600;8.034;2023-12-20T00:31:37;8.40;99.90
32877;DHT22;19226;51.600;8.034;2023-12-20T00:34:22;8.40;99.90
32877;DHT22;19226;51.600;8.034;2023-12-20T00:37:06;8.30;99.90
32877;DHT22;19226;51.600;8.034;2023-12-20T00:39:51;8.30;99.90
32877;DHT22;19226;51.600;8.034;2023-12-20T00:42:36;8.30;99.90
32877;DHT22;19226;51.600;8.034;2023-12-20T00:45:20;8.30;99.90
32877;DHT22;19226;51.600;8.034;2023-12-20T00:48:05;8.20;99.90
32877;DHT22;19226;51.600;8.034;2023-12-20T00:50:50;8.20;99.90
32877;DHT22;19226;51.600;8.034;2023-12-20T00:53:34;8.20;99.90
32877;DHT22;19226;51.600;8.034;2023-12-20T00:56:19;8.20;99.90
32877;DHT22;19226;51.600;8.034;2023-12-20T00:59:05;8.20;99.90
32877;DHT22;19226;51.600;8.034;2023-12-20T01:01:49;8.20;99.90
32877;DHT22;19226;51.600;8.034;2023-12-20T01:04:34;8.10;99.90
32877;DHT22;19226;51.600;8.034;2023-12-20T01:07:18;8.10;99.90
32877;DHT22;19226;51.600;8.034;2023-12-20T01:10:03;8.10;99.90
32877;DHT22;19226;51.600;8.034;2023-12-20T01:12:48;8.10;99.90
32877;DHT22;19226;51.600;8.034;2023-12-20T01:15:32;8.00;99.90
32877;DHT22;19226;51.600;8.034;2023-12-20T01:18:17;8.00;99.90
32877;DHT22;19226;51.600;8.034;2023-12-20T01:21:02;8.00;99.90
32877;DHT22;19226;51.600;8.034;2023-12-20T01:23:47;8.00;99.90
32877;DHT22;19226;51.600;8.034;2023-12-20T01:26:32;8.00;99.90
32877;DHT22;19226;51.600;8.034;2023-12-20T01:29:17;8.00;99.90
32877;DHT22;19226;51.600;8.034;2023-12-20T01:32:02;8.00;99.90
32877;DHT22;19226;51.600;8.034;2023-12-20T01:34:47;7.90;99.90
32877;DHT22;19226;51.600;8.034;2023-12-20T01:37:32;8.00;99.90
32877;DHT22;19226;51.600;8.034;2023-12-20T01:40:17;8.00;99.90
32877;DHT22;19226;51.600;8.034;2023-12-20T01:43:06;7.90;99.90
32877;DHT22;19226;51.600;8.034;2023-12-20T01:45:51;7.90;99.90
32877;DHT22;19226;51.600;8.034;2023-12-20T01:48:36;7.90;99.90
32877;DHT22;19226;51.600;8.034;2023-12-20T01:51:22;7.90;99.90
32877;DHT22;19226;51.600;8.034;2023-12-20T01:54:07;7.80;99.90
32877;DHT22;19226;51.600;8.034;2023-12-20T01:56:51;7.80;99.90
32877;DHT22;19226;51.600;8.034;2023-12-20T01:59:39;7.80;99.90
32877;DHT22;19226;51.600;8.034;2023-12-20T02:02:26;7.80;99.90
32877;DHT22;19226;51.600;8.034;2023-12-20T02:05:12;7.70;99.90
32877;DHT22;19226;51.600;8.034;2023-12-20T02:07:57;7.70;99.90
32877;DHT22;19226;51.600;8.034;2023-12-20T02:10:41;7.70;99.90
32877;DHT22;19226;51.600;8.034;2023-12-20T02:13:26;7.70;99.90
32877;DHT22;19226;51.600;8.034;2023-12-20T02:16:11;7.60;99.90
32877;DHT22;19226;51.600;8.034;2023-12-20T02:18:55;7.60;99.90
32877;DHT22;19226;51.600;8.034;2023-12-20T02:21:40;7.50;99.90
32877;DHT22;19226;51.600;8.034;2023-12-20T02:24:24;7.50;99.90
32877;DHT22;19226;51.600;8.034;2023-12-20T02:27:09;7.50;99.90
32877;DHT22;19226;51.600;8.034;2023-12-20T02:29:53;7.40;99.90
32877;DHT22;19226;51.600;8.034;2023-12-20T02:32:38;7.40;99.90
32877;DHT22;19226;51.600;8.034;2023-12-20T02:35:22;7.40;99.90
32877;DHT22;19226;51.600;8.034;2023-12-20T02:38:07;7.40;99.90
32877;DHT22;19226;51.600;8.034;2023-12-20T02:40:52;7.40;99.90
32877;DHT22;19226;51.600;8.034;2023-12-20T02:43:36;7.30;99.90
32877;DHT22;19226;51.600;8.034;2023-12-20T02:46:21;7.30;99.90
32877;DHT22;19226;51.600;8.034;2023-12-20T02:49:06;7.30;99.90
32877;DHT22;19226;51.600;8.034;2023-12-20T02:51:50;7.20;99.90
32877;DHT22;19226;51.600;8.034;2023-12-20T02:54:35;7.20;99.90
32877;DHT22;19226;51.600;8.034;2023-12-20T02:57:19;7.20;99.90
32877;DHT22;19226;51.600;8.034;2023-12-20T03:00:04;7.20;99.90
32877;DHT22;19226;51.600;8.034;2023-12-20T03:02:48;7.20;99.90
32877;DHT22;19226;51.600;8.034;2023-12-20T03:05:33;7.20;99.90
32877;DHT22;19226;51.600;8.034;2023-12-20T03:08:17;7.20;99.90
32877;DHT22;19226;51.600;8.034;2023-12-20T03:11:02;7.20;99.90
32877;DHT22;19226;51.600;8.034;2023-12-20T03:13:47;7.20;99.90
32877;DHT22;19226;51.600;8.034;2023-12-20T03:16:32;7.20;99.90
32877;DHT22;19226;51.600;8.034;2023-12-20T03:19:18;7.20;99.90
32877;DHT22;19226;51.600;8.034;2023-12-20T03:22:03;7.20;99.90
32877;DHT22;19226;51.600;8.034;2023-12-20T03:24:48;7.10;99.90
32877;DHT22;19226;51.600;8.034;2023-12-20T03:27:32;7.20;99.90
32877;DHT22;19226;51.600;8.034;2023-12-20T03:30:17;7.20;99.90
32877;DHT22;19226;51.600;8.034;2023-12-20T03:33:01;7.10;99.90
32877;DHT22;19226;51.600;8.034;2023-12-20T03:35:46;7.10;99.90
32877;DHT22;19226;51.600;8.034;2023-12-20T03:38:31;7.10;99.90
32877;DHT22;19226;51.600;8.034;2023-12-20T03:41:15;7.10;99.90
32877;DHT22;19226;51.600;8.034;2023-12-20T03:44:00;7.20;99.90
32877;DHT22;19226;51.600;8.034;2023-12-20T03:46:44;7.20;99.90
32877;DHT22;19226;51.600;8.034;2023-12-20T03:49:29;7.10;99.90
32877;DHT22;19226;51.600;8.034;2023-12-20T03:52:14;7.10;99.90
32877;DHT22;19226;51.600;8.034;2023-12-20T03:54:59;7.20;99.90
32877;DHT22;19226;51.600;8.034;2023-12-20T03:57:43;7.20;99.90
32877;DHT22;19226;51.600;8.034;2023-12-20T04:00:29;7.20;99.90
32877;DHT22;19226;51.600;8.034;2023-12-20T04:03:14;7.20;99.90
32877;DHT22;19226;51.600;8.034;2023-12-20T04:05:59;7.10;99.90
32877;DHT22;19226;51.600;8.034;2023-12-20T04:08:43;7.10;99.90
32877;DHT22;19226;51.600;8.034;2023-12-20T04:11:28;7.00;99.90
32877;DHT22;19226;51.600;8.034;2023-12-20T04:14:12;7.10;99.90
32877;DHT22;19226;51.600;8.034;2023-12-20T04:16:57;7.10;99.90
32877;DHT22;19226;51.600;8.034;2023-12-20T04:19:42;7.10;99.90
32877;DHT22;19226;51.600;8.034;2023-12-20T04:22:26;7.10;99.90
32877;DHT22;19226;51.600;8.034;2023-12-20T04:25:11;7.10;99.90
32877;DHT22;19226;51.600;8.034;2023-12-20T04:27:55;7.10;99.90
32877;DHT22;19226;51.600;8.034;2023-12-20T04:30:40;7.10;99.90
32877;DHT22;19226;51.600;8.034;2023-12-20T04:33:24;7.10;99.90
32877;DHT22;19226;51.600;8.034;2023-12-20T04:36:09;7.10;99.90
32877;DHT22;19226;51.600;8.034;2023-12-20T04:38:54;7.10;99.90
32877;DHT22;19226;51.600;8.034;2023-12-20T04:41:38;7.10;99.90
32877;DHT22;19226;51.600;8.034;2023-12-20T04:44:23;7.00;99.90
32877;DHT22;19226;51.600;8.034;2023-12-20T04:47:07;7.00;99.90
32877;DHT22;19226;51.600;8.034;2023-12-20T04:49:52;7.00;99.90
32877;DHT22;19226;51.600;8.034;2023-12-20T04:52:37;7.00;99.90
32877;DHT22;19226;51.600;8.034;2023-12-20T04:55:21;7.00;99.90
32877;DHT22;19226;51.600;8.034;2023-12-20T04:58:06;7.00;99.90
32877;DHT22;19226;51.600;8.034;2023-12-20T05:00:50;6.90;99.90
32877;DHT22;19226;51.600;8.034;2023-12-20T05:03:36;7.00;99.90
32877;DHT22;19226;51.600;8.034;2023-12-20T05:06:20;7.00;99.90
32877;DHT22;19226;51.600;8.034;2023-12-20T05:09:05;7.00;99.90
32877;DHT22;19226;51.600;8.034;2023-12-20T05:11:49;7.00;99.90
32877;DHT22;19226;51.600;8.034;2023-12-20T05:14:34;7.00;99.90
32877;DHT22;19226;51.600;8.034;2023-12-20T05:17:18;7.00;99.90
32877;DHT22;19226;51.600;8.034;2023-12-20T05:20:05;6.90;99.90
32877;DHT22;19226;51.600;8.034;2023-12-20T05:22:50;6.90;99.90
32877;DHT22;19226;51.600;8.034;2023-12-20T05:25:34;7.00;99.90
32877;DHT22;19226;51.600;8.034;2023-12-20T05:28:19;6.90;99.90
32877;DHT22;19226;51.600;8.034;2023-12-20T05:31:03;6.90;99.90
32877;DHT22;19226;51.600;8.034;2023-12-20T05:33:48;6.90;99.90
32877;DHT22;19226;51.600;8.034;2023-12-20T05:36:32;6.90;99.90
32877;DHT22;19226;51.600;8.034;2023-12-20T05:39:17;6.90;99.90
32877;DHT22;19226;51.600;8.034;2023-12-20T05:42:01;6.90;99.90
32877;DHT22;19226;51.600;8.034;2023-12-20T05:44:46;6.90;99.90
32877;DHT22;19226;51.600;8.034;2023-12-20T05:47:31;6.90;99.90
32877;DHT22;19226;51.600;8.034;2023-12-20T05:50:15;6.90;99.90
32877;DHT22;19226;51.600;8.034;2023-12-20T05:53:00;6.90;99.90
32877;DHT22;19226;51.600;8.034;2023-12-20T05:55:45;6.90;99.90
32877;DHT22;19226;51.600;8.034;2023-12-20T05:58:30;6.90;99.90
32877;DHT22;19226;51.600;8.034;2023-12-20T06:01:15;6.90;99.90
32877;DHT22;19226;51.600;8.034;2023-12-20T06:04:01;6.90;99.90
32877;DHT22;19226;51.600;8.034;2023-12-20T06:06:47;6.80;99.90
32877;DHT22;19226;51.600;8.034;2023-12-20T06:09:32;6.80;99.90
32877;DHT22;19226;51.600;8.034;2023-12-20T06:12:16;6.80;99.90
32877;DHT22;19226;51.600;8.034;2023-12-20T06:15:01;6.80;99.90
32877;DHT22;19226;51.600;8.034;2023-12-20T06:17:46;6.80;99.90
32877;DHT22;19226;51.600;8.034;2023-12-20T06:20:32;6.80;99.90
32877;DHT22;19226;51.600;8.034;2023-12-20T06:23:16;6.80;99.90
32877;DHT22;19226;51.600;8.034;2023-12-20T06:26:01;6.80;99.90
32877;DHT22;19226;51.600;8.034;2023-12-20T06:28:45;6.80;99.90
32877;DHT22;19226;51.600;8.034;2023-12-20T06:31:30;6.80;99.90
32877;DHT22;19226;51.600;8.034;2023-12-20T06:34:16;6.80;99.90
32877;DHT22;19226;51.600;8.034;2023-12-20T06:37:01;6.80;99.90
32877;DHT22;19226;51.600;8.034;2023-12-20T06:39:45;6.80;99.90
32877;DHT22;19226;51.600;8.034;2023-12-20T06:42:31;6.80;99.90
32877;DHT22;19226;51.600;8.034;2023-12-20T06:45:15;6.80;99.90
32877;DHT22;19226;51.600;8.034;2023-12-20T06:48:00;6.90;99.90
32877;DHT22;19226;51.600;8.034;2023-12-20T06:50:45;6.80;99.90
32877;DHT22;19226;51.600;8.034;2023-12-20T06:53:30;6.80;99.90
32877;DHT22;19226;51.600;8.034;2023-12-20T06:56:14;6.80;99.90
32877;DHT22;19226;51.600;8.034;2023-12-20T06:59:00;6.80;99.90
32877;DHT22;19226;51.600;8.034;2023-12-20T07:01:48;6.80;99.90
32877;DHT22;19226;51.600;8.034;2023-12-20T07:04:32;6.80;99.90
32877;DHT22;19226;51.600;8.034;2023-12-20T07:07:17;6.80;99.90
32877;DHT22;19226;51.600;8.034;2023-12-20T07:10:02;6.90;99.90
32877;DHT22;19226;51.600;8.034;2023-12-20T07:12:46;6.90;99.90
32877;DHT22;19226;51.600;8.034;2023-12-20T07:15:33;6.90;99.90
32877;DHT22;19226;51.600;8.034;2023-12-20T07:18:17;6.90;99.90
32877;DHT22;19226;51.600;8.034;2023-12-20T07:21:02;6.90;99.90
32877;DHT22;19226;51.600;8.034;2023-12-20T07:23:47;6.90;99.90
32877;DHT22;19226;51.600;8.034;2023-12-20T07:26:31;6.80;99.90
32877;DHT22;19226;51.600;8.034;2023-12-20T07:29:16;6.80;99.90
32877;DHT22;19226;51.600;8.034;2023-12-20T07:32:00;6.80;99.90
32877;DHT22;19226;51.600;8.034;2023-12-20T07:34:45;6.90;99.90
32877;DHT22;19226;51.600;8.034;2023-12-20T07:37:29;6.90;99.90
32877;DHT22;19226;51.600;8.034;2023-12-20T07:40:14;6.90;99.90
32877;DHT22;19226;51.600;8.034;2023-12-20T07:43:01;6.90;99.90
32877;DHT22;19226;51.600;8.034;2023-12-20T07:45:46;6.90;99.90
32877;DHT22;19226;51.600;8.034;2023-12-20T07:48:30;6.90;99.90
32877;DHT22;19226;51.600;8.034;2023-12-20T07:51:15;6.90;99.90
32877;DHT22;19226;51.600;8.034;2023-12-20T07:53:59;6.90;99.90
32877;DHT22;19226;51.600;8.034;2023-12-20T07:56:44;6.90;99.90
32877;DHT22;19226;51.600;8.034;2023-12-20T07:59:29;7.00;99.90
32877;DHT22;19226;51.600;8.034;2023-12-20T08:02:14;6.90;99.90
32877;DHT22;19226;51.600;8.034;2023-12-20T08:04:58;7.00;99.90
32877;DHT22;19226;51.600;8.034;2023-12-20T08:07:43;7.00;99.90
32877;DHT22;19226;51.600;8.034;2023-12-20T08:10:28;6.90;99.90
32877;DHT22;19226;51.600;8.034;2023-12-20T08:13:14;6.90;99.90
32877;DHT22;19226;51.600;8.034;2023-12-20T08:15:58;6.90;99.90
32877;DHT22;19226;51.600;8.034;2023-12-20T08:18:44;6.90;99.90
32877;DHT22;19226;51.600;8.034;2023-12-20T08:21:29;6.90;99.90
32877;DHT22;19226;51.600;8.034;2023-12-20T08:24:13;6.90;99.90
32877;DHT22;19226;51.600;8.034;2023-12-20T08:26:58;6.90;99.90
32877;DHT22;19226;51.600;8.034;2023-12-20T08:29:44;7.00;99.90
32877;DHT22;19226;51.600;8.034;2023-12-20T08:32:30;6.90;99.90
32877;DHT22;19226;51.600;8.034;2023-12-20T08:35:14;7.00;99.90
32877;DHT22;19226;51.600;8.034;2023-12-20T08:37:59;7.00;99.90
32877;DHT22;19226;51.600;8.034;2023-12-20T08:40:44;7.00;99.90
32877;DHT22;19226;51.600;8.034;2023-12-20T08:43:28;7.00;99.90
32877;DHT22;19226;51.600;8.034;2023-12-20T08:46:14;7.00;99.90
32877;DHT22;19226;51.600;8.034;2023-12-20T08:48:59;7.00;99.90
32877;DHT22;19226;51.600;8.034;2023-12-20T08:51:44;7.00;99.90
32877;DHT22;19226;51.600;8.034;2023-12-20T08:54:29;7.10;99.90
32877;DHT22;19226;51.600;8.034;2023-12-20T08:57:13;7.10;99.90
32877;DHT22;19226;51.600;8.034;2023-12-20T08:59:58;7.10;99.90
32877;DHT22;19226;51.600;8.034;2023-12-20T09:02:43;7.10;99.90
32877;DHT22;19226;51.600;8.034;2023-12-20T09:05:28;7.10;99.90
32877;DHT22;19226;51.600;8.034;2023-12-20T09:08:13;7.20;99.90
32877;DHT22;19226;51.600;8.034;2023-12-20T09:10:57;7.20;99.90
32877;DHT22;19226;51.600;8.034;2023-12-20T09:13:42;7.20;99.90
32877;DHT22;19226;51.600;8.034;2023-12-20T09:16:26;7.20;99.90
32877;DHT22;19226;51.600;8.034;2023-12-20T09:19:11;7.20;99.90
32877;DHT22;19226;51.600;8.034;2023-12-20T09:21:55;7.20;99.90
32877;DHT22;19226;51.600;8.034;2023-12-20T09:24:40;7.20;99.90
32877;DHT22;19226;51.600;8.034;2023-12-20T09:27:24;7.20;99.90
32877;DHT22;19226;51.600;8.034;2023-12-20T09:30:09;7.20;99.90
32877;DHT22;19226;51.600;8.034;2023-12-20T09:32:54;7.20;99.90
32877;DHT22;19226;51.600;8.034;2023-12-20T09:35:39;7.20;99.90
32877;DHT22;19226;51.600;8.034;2023-12-20T09:38:23;7.20;99.90
32877;DHT22;19226;51.600;8.034;2023-12-20T09:41:08;7.20;99.90
32877;DHT22;19226;51.600;8.034;2023-12-20T09:43:54;7.20;99.90
32877;DHT22;19226;51.600;8.034;2023-12-20T09:46:45;7.20;99.90
32877;DHT22;19226;51.600;8.034;2023-12-20T09:49:33;7.20;99.90
32877;DHT22;19226;51.600;8.034;2023-12-20T09:52:18;7.30;99.90
32877;DHT22;19226;51.600;8.034;2023-12-20T09:55:05;7.30;99.90
32877;DHT22;19226;51.600;8.034;2023-12-20T09:57:51;7.30;99.90
32877;DHT22;19226;51.600;8.034;2023-12-20T10:00:36;7.30;99.90
32877;DHT22;19226;51.600;8.034;2023-12-20T10:03:25;7.30;99.90
32877;DHT22;19226;51.600;8.034;2023-12-20T10:06:10;7.30;99.90
32877;DHT22;19226;51.600;8.034;2023-12-20T10:08:55;7.30;99.90
32877;DHT22;19226;51.600;8.034;2023-12-20T10:11:40;7.30;99.90
32877;DHT22;19226;51.600;8.034;2023-12-20T10:14:25;7.30;99.90
32877;DHT22;19226;51.600;8.034;2023-12-20T10:17:09;7.40;99.90
32877;DHT22;19226;51.600;8.034;2023-12-20T10:19:54;7.40;99.90
32877;DHT22;19226;51.600;8.034;2023-12-20T10:22:39;7.40;99.90
32877;DHT22;19226;51.600;8.034;2023-12-20T10:25:24;7.40;99.90
32877;DHT22;19226;51.600;8.034;2023-12-20T10:28:14;7.40;99.90
32877;DHT22;19226;51.600;8.034;2023-12-20T10:31:01;7.40;99.90
32877;DHT22;19226;51.600;8.034;2023-12-20T10:33:46;7.40;99.90
32877;DHT22;19226;51.600;8.034;2023-12-20T10:36:32;7.40;99.90
32877;DHT22;19226;51.600;8.034;2023-12-20T10:39:17;7.50;99.90
32877;DHT22;19226;51.600;8.034;2023-12-20T10:42:04;7.50;99.90
32877;DHT22;19226;51.600;8.034;2023-12-20T10:44:52;7.50;99.90
32877;DHT22;19226;51.600;8.034;2023-12-20T10:47:39;7.50;99.90
32877;DHT22;19226;51.600;8.034;2023-12-20T10:50:25;7.50;99.90
32877;DHT22;19226;51.600;8.034;2023-12-20T10:53:10;7.50;99.90
32877;DHT22;19226;51.600;8.034;2023-12-20T10:56:00;7.50;99.90
32877;DHT22;19226;51.600;8.034;2023-12-20T10:58:45;7.50;99.90
32877;DHT22;19226;51.600;8.034;2023-12-20T11:01:34;7.50;99.90
32877;DHT22;19226;51.600;8.034;2023-12-20T11:04:25;7.60;99.90
32877;DHT22;19226;51.600;8.034;2023-12-20T11:07:42;7.50;99.90
32877;DHT22;19226;51.600;8.034;2023-12-20T11:10:51;7.60;99.90
32877;DHT22;19226;51.600;8.034;2023-12-20T11:13:47;7.60;99.90
32877;DHT22;19226;51.600;8.034;2023-12-20T11:16:38;7.50;99.90
32877;DHT22;19226;51.600;8.034;2023-12-20T11:19:22;7.50;99.90
32877;DHT22;19226;51.600;8.034;2023-12-20T11:22:07;7.60;99.90
32877;DHT22;19226;51.600;8.034;2023-12-20T11:24:52;7.60;99.90
32877;DHT22;19226;51.600;8.034;2023-12-20T11:27:41;7.60;99.90
32877;DHT22;19226;51.600;8.034;2023-12-20T11:30:47;7.60;99.90
32877;DHT22;19226;51.600;8.034;2023-12-20T11:33:36;7.60;99.90
32877;DHT22;19226;51.600;8.034;2023-12-20T11:36:21;7.60;99.90
32877;DHT22;19226;51.600;8.034;2023-12-20T11:39:10;7.60;99.90
32877;DHT22;19226;51.600;8.034;2023-12-20T11:41:55;7.60;99.90
32877;DHT22;19226;51.600;8.034;2023-12-20T11:44:42;7.60;99.90
32877;DHT22;19226;51.600;8.034;2023-12-20T11:47:27;7.60;99.90
32877;DHT22;19226;51.600;8.034;2023-12-20T11:50:12;7.60;99.90
32877;DHT22;19226;51.600;8.034;2023-12-20T11:52:56;7.60;99.90
32877;DHT22;19226;51.600;8.034;2023-12-20T11:55:41;7.70;99.90
32877;DHT22;19226;51.600;8.034;2023-12-20T11:58:26;7.70;99.90
32877;DHT22;19226;51.600;8.034;2023-12-20T12:01:10;7.70;99.90
32877;DHT22;19226;51.600;8.034;2023-12-20T12:04:07;7.70;99.90
32877;DHT22;19226;51.600;8.034;2023-12-20T12:06:52;7.70;99.90
32877;DHT22;19226;51.600;8.034;2023-12-20T12:09:36;7.70;99.90
32877;DHT22;19226;51.600;8.034;2023-12-20T12:12:21;7.80;99.90
32877;DHT22;19226;51.600;8.034;2023-12-20T12:15:06;7.80;99.90
32877;DHT22;19226;51.600;8.034;2023-12-20T12:17:57;7.80;99.90
32877;DHT22;19226;51.600;8.034;2023-12-20T12:20:41;7.90;99.90
32877;DHT22;19226;51.600;8.034;2023-12-20T12:23:26;7.90;99.90
32877;DHT22;19226;51.600;8.034;2023-12-20T12:26:11;7.90;99.90
32877;DHT22;19226;51.600;8.034;2023-12-20T12:28:56;7.90;99.90
32877;DHT22;19226;51.600;8.034;2023-12-20T12:31:40;7.90;99.90
32877;DHT22;19226;51.600;8.034;2023-12-20T12:34:29;8.00;99.90
32877;DHT22;19226;51.600;8.034;2023-12-20T12:37:13;7.90;99.90
32877;DHT22;19226;51.600;8.034;2023-12-20T12:39:58;7.90;99.90
32877;DHT22;19226;51.600;8.034;2023-12-20T12:42:44;8.00;99.90
32877;DHT22;19226;51.600;8.034;2023-12-20T12:45:29;8.00;99.90
32877;DHT22;19226;51.600;8.034;2023-12-20T12:48:14;8.00;99.90
32877;DHT22;19226;51.600;8.034;2023-12-20T12:50:59;8.10;99.90
32877;DHT22;19226;51.600;8.034;2023-12-20T12:53:43;8.00;99.90
32877;DHT22;19226;51.600;8.034;2023-12-20T12:56:28;8.00;99.90
32877;DHT22;19226;51.600;8.034;2023-12-20T12:59:12;7.90;99.90
32877;DHT22;19226;51.600;8.034;2023-12-20T13:01:56;7.90;99.90
32877;DHT22;19226;51.600;8.034;2023-12-20T13:04:41;7.90;99.90
32877;DHT22;19226;51.600;8.034;2023-12-20T13:07:27;7.90;99.90
32877;DHT22;19226;51.600;8.034;2023-12-20T13:10:11;7.90;99.90
32877;DHT22;19226;51.600;8.034;2023-12-20T13:12:56;7.90;99.90
32877;DHT22;19226;51.600;8.034;2023-12-20T13:15:41;7.90;99.90
32877;DHT22;19226;51.600;8.034;2023-12-20T13:18:25;7.90;99.90
32877;DHT22;19226;51.600;8.034;2023-12-20T13:21:11;7.90;99.90
32877;DHT22;19226;51.600;8.034;2023-12-20T13:23:55;7.90;99.90
32877;DHT22;19226;51.600;8.034;2023-12-20T13:26:40;8.00;99.90
32877;DHT22;19226;51.600;8.034;2023-12-20T13:29:25;8.00;99.90
32877;DHT22;19226;51.600;8.034;2023-12-20T13:32:11;8.10;99.90
32877;DHT22;19226;51.600;8.034;2023-12-20T13:34:57;8.10;99.90
32877;DHT22;19226;51.600;8.034;2023-12-20T13:37:41;8.10;99.90
32877;DHT22;19226;51.600;8.034;2023-12-20T13:40:26;8.00;99.90
32877;DHT22;19226;51.600;8.034;2023-12-20T13:43:10;8.00;99.90
32877;DHT22;19226;51.600;8.034;2023-12-20T13:45:57;8.10;99.90
32877;DHT22;19226;51.600;8.034;2023-12-20T13:48:41;8.10;99.90
32877;DHT22;19226;51.600;8.034;2023-12-20T13:51:26;8.10;99.90
32877;DHT22;19226;51.600;8.034;2023-12-20T13:54:10;8.20;99.90
32877;DHT22;19226;51.600;8.034;2023-12-20T13:56:56;8.20;99.90
32877;DHT22;19226;51.600;8.034;2023-12-20T13:59:42;8.10;99.90
32877;DHT22;19226;51.600;8.034;2023-12-20T14:02:26;8.10;99.90
32877;DHT22;19226;51.600;8.034;2023-12-20T14:05:11;8.10;99.90
32877;DHT22;19226;51.600;8.034;2023-12-20T14:07:56;8.10;99.90
32877;DHT22;19226;51.600;8.034;2023-12-20T14:10:41;8.10;99.90
32877;DHT22;19226;51.600;8.034;2023-12-20T14:13:26;8.10;99.90
32877;DHT22;19226;51.600;8.034;2023-12-20T14:16:10;8.10;99.90
32877;DHT22;19226;51.600;8.034;2023-12-20T14:18:55;8.10;99.90
32877;DHT22;19226;51.600;8.034;2023-12-20T14:21:42;8.10;99.90
32877;DHT22;19226;51.600;8.034;2023-12-20T14:24:27;8.00;99.90
32877;DHT22;19226;51.600;8.034;2023-12-20T14:27:11;8.00;99.90
32877;DHT22;19226;51.600;8.034;2023-12-20T14:29:57;8.00;99.90
32877;DHT22;19226;51.600;8.034;2023-12-20T14:32:41;7.90;99.90
32877;DHT22;19226;51.600;8.034;2023-12-20T14:35:26;7.90;99.90
32877;DHT22;19226;51.600;8.034;2023-12-20T14:38:11;7.90;99.90
32877;DHT22;19226;51.600;8.034;2023-12-20T14:40:58;8.00;99.90
32877;DHT22;19226;51.600;8.034;2023-12-20T14:43:43;7.90;99.90
32877;DHT22;19226;51.600;8.034;2023-12-20T14:46:28;7.90;99.90
32877;DHT22;19226;51.600;8.034;2023-12-20T14:49:13;8.00;99.90
32877;DHT22;19226;51.600;8.034;2023-12-20T14:51:58;7.90;99.90
32877;DHT22;19226;51.600;8.034;2023-12-20T14:54:43;7.90;99.90
32877;DHT22;19226;51.600;8.034;2023-12-20T14:57:28;7.90;99.90
32877;DHT22;19226;51.600;8.034;2023-12-20T15:00:14;7.90;99.90
32877;DHT22;19226;51.600;8.034;2023-12-20T15:03:00;7.90;99.90
32877;DHT22;19226;51.600;8.034;2023-12-20T15:05:44;7.90;99.90
32877;DHT22;19226;51.600;8.034;2023-12-20T15:08:31;7.90;99.90
32877;DHT22;19226;51.600;8.034;2023-12-20T15:11:15;7.90;99.90
32877;DHT22;19226;51.600;8.034;2023-12-20T15:14:02;7.80;99.90
32877;DHT22;19226;51.600;8.034;2023-12-20T15:16:50;7.80;99.90
32877;DHT22;19226;51.600;8.034;2023-12-20T15:19:35;7.80;99.90
32877;DHT22;19226;51.600;8.034;2023-12-20T15:22:23;7.80;99.90
32877;DHT22;19226;51.600;8.034;2023-12-20T15:25:08;7.80;99.90
32877;DHT22;19226;51.600;8.034;2023-12-20T15:27:52;7.70;99.90
32877;DHT22;19226;51.600;8.034;2023-12-20T15:30:37;7.80;99.90
32877;DHT22;19226;51.600;8.034;2023-12-20T15:33:22;7.80;99.90
32877;DHT22;19226;51.600;8.034;2023-12-20T15:36:07;7.80;99.90
32877;DHT22;19226;51.600;8.034;2023-12-20T15:38:52;7.70;99.90
32877;DHT22;19226;51.600;8.034;2023-12-20T15:41:36;7.70;99.90
32877;DHT22;19226;51.600;8.034;2023-12-20T15:44:21;7.70;99.90
32877;DHT22;19226;51.600;8.034;2023-12-20T15:47:06;7.80;99.90
32877;DHT22;19226;51.600;8.034;2023-12-20T15:49:51;7.80;99.90
32877;DHT22;19226;51.600;8.034;2023-12-20T15:52:35;7.70;99.90
32877;DHT22;19226;51.600;8.034;2023-12-20T15:55:20;7.80;99.90
32877;DHT22;19226;51.600;8.034;2023-12-20T15:58:05;7.70;99.90
32877;DHT22;19226;51.600;8.034;2023-12-20T16:00:50;7.80;99.90
32877;DHT22;19226;51.600;8.034;2023-12-20T16:03:34;7.80;99.90
32877;DHT22;19226;51.600;8.034;2023-12-20T16:06:19;7.80;99.90
32877;DHT22;19226;51.600;8.034;2023-12-20T16:09:05;7.80;99.90
32877;DHT22;19226;51.600;8.034;2023-12-20T16:11:50;7.80;99.90
32877;DHT22;19226;51.600;8.034;2023-12-20T16:14:34;7.80;99.90
32877;DHT22;19226;51.600;8.034;2023-12-20T16:17:19;7.80;99.90
32877;DHT22;19226;51.600;8.034;2023-12-20T16:20:04;7.80;99.90
32877;DHT22;19226;51.600;8.034;2023-12-20T16:22:49;7.80;99.90
32877;DHT22;19226;51.600;8.034;2023-12-20T16:25:35;7.80;99.90
32877;DHT22;19226;51.600;8.034;2023-12-20T16:28:22;7.80;99.90
32877;DHT22;19226;51.600;8.034;2023-12-20T16:31:06;7.80;99.90
32877;DHT22;19226;51.600;8.034;2023-12-20T16:33:51;7.80;99.90
32877;DHT22;19226;51.600;8.034;2023-12-20T16:36:50;7.80;99.90
32877;DHT22;19226;51.600;8.034;2023-12-20T16:39:35;7.80;99.90
32877;DHT22;19226;51.600;8.034;2023-12-20T16:42:19;7.80;99.90
32877;DHT22;19226;51.600;8.034;2023-12-20T16:45:05;7.80;99.90
32877;DHT22;19226;51.600;8.034;2023-12-20T16:47:50;7.80;99.90
32877;DHT22;19226;51.600;8.034;2023-12-20T16:50:35;7.80;99.90
32877;DHT22;19226;51.600;8.034;2023-12-20T16:53:20;7.90;99.90
32877;DHT22;19226;51.600;8.034;2023-12-20T16:56:05;7.80;99.90
32877;DHT22;19226;51.600;8.034;2023-12-20T16:58:50;7.90;99.90
32877;DHT22;19226;51.600;8.034;2023-12-20T17:01:35;7.90;99.90
32877;DHT22;19226;51.600;8.034;2023-12-20T17:04:20;7.90;99.90
32877;DHT22;19226;51.600;8.034;2023-12-20T17:07:07;7.90;99.90
32877;DHT22;19226;51.600;8.034;2023-12-20T17:09:51;7.90;99.90
32877;DHT22;19226;51.600;8.034;2023-12-20T17:12:36;7.90;99.90
32877;DHT22;19226;51.600;8.034;2023-12-20T17:15:20;7.90;99.90
32877;DHT22;19226;51.600;8.034;2023-12-20T17:18:05;7.90;99.90
32877;DHT22;19226;51.600;8.034;2023-12-20T17:20:50;7.90;99.90
32877;DHT22;19226;51.600;8.034;2023-12-20T17:23:35;7.90;99.90
32877;DHT22;19226;51.600;8.034;2023-12-20T17:26:19;7.90;99.90
32877;DHT22;19226;51.600;8.034;2023-12-20T17:29:04;7.90;99.90
32877;DHT22;19226;51.600;8.034;2023-12-20T17:31:49;7.90;99.90
32877;DHT22;19226;51.600;8.034;2023-12-20T17:34:33;7.90;99.90
32877;DHT22;19226;51.600;8.034;2023-12-20T17:37:18;7.90;99.90
32877;DHT22;19226;51.600;8.034;2023-12-20T17:40:02;7.90;99.90